Time;durP1;ratioP1;P1;durP2;ratioP2;P2;SDS_P1;SDS_P2;PMS_P1;PMS_P2;Temp;Humidity;BMP_temperature;BMP_pressure;BME280_temperature;BME280_humidity;BME280_pressure;Samples;Min_cycle;Max_cycle;Signal;HPM_P1;HPM_P2
2023/09/21 00:01:03;;;;;;;26.23;4.68;;;;;;;;;;5108100;28;20049;-39
2023/09/21 00:03:31;;;;;;;20.90;4.47;;;;;;;;;;5097442;28;20057;-37
2023/09/21 00:05:58;;;;;;;18.30;4.47;;;;;;;;;;5102593;28;20050;-37
2023/09/21 00:08:25;;;;;;;22.90;4.25;;;;;;;;;;5102066;28;20038;-39
2023/09/21 00:10:52;;;;;;;20.85;4.07;;;;;;;;;;5102022;28;20032;-37
2023/09/21 00:13:20;;;;;;;17.63;4.20;;;;;;;;;;5097544;28;20028;-36
2023/09/21 00:15:49;;;;;;;24.95;4.53;;;;;;;;;;5085829;28;20035;-36
2023/09/21 00:18:16;;;;;;;22.95;3.90;;;;;;;;;;5099828;28;20035;-38
2023/09/21 00:20:51;;;;;;;20.73;4.70;;;;;;;;;;5111145;28;20370;-36
2023/09/21 00:23:20;;;;;;;24.23;4.38;;;;;;;;;;5113089;28;20051;-37
2023/09/21 00:25:47;;;;;;;19.55;4.15;;;;;;;;;;5113537;28;20074;-37
2023/09/21 00:28:14;;;;;;;13.90;3.92;;;;;;;;;;5114879;28;20126;-35
2023/09/21 00:30:42;;;;;;;18.45;4.13;;;;;;;;;;5110936;28;20481;-37
2023/09/21 00:33:09;;;;;;;15.02;3.90;;;;;;;;;;5115095;28;20361;-35
2023/09/21 00:35:39;;;;;;;12.25;4.90;;;;;;;;;;5110996;28;20525;-36
2023/09/21 00:38:15;;;;;;;12.77;3.85;;;;;;;;;;5101162;28;20036;-36
2023/09/21 00:40:43;;;;;;;19.45;4.30;;;;;;;;;;5102804;28;20023;-36
2023/09/21 00:43:10;;;;;;;14.98;4.65;;;;;;;;;;5114679;28;20111;-36
2023/09/21 00:45:38;;;;;;;15.75;4.43;;;;;;;;;;5114613;28;20088;-36
2023/09/21 00:48:11;;;;;;;25.52;6.07;;;;;;;;;;5109656;28;20678;-36
2023/09/21 00:50:41;;;;;;;29.33;7.63;;;;;;;;;;5114170;28;20043;-36
2023/09/21 00:53:12;;;;;;;28.75;9.02;;;;;;;;;;5114588;28;20485;-36
2023/09/21 00:55:40;;;;;;;32.58;9.32;;;;;;;;;;5114296;28;20130;-36
2023/09/21 00:58:08;;;;;;;43.22;14.50;;;;;;;;;;5114381;28;20034;-35
2023/09/21 01:00:36;;;;;;;39.53;15.10;;;;;;;;;;5114212;28;20039;-35
2023/09/21 01:03:11;;;;;;;47.08;15.82;;;;;;;;;;5108828;28;20039;-35
2023/09/21 01:05:44;;;;;;;52.00;15.73;;;;;;;;;;5113993;28;20039;-36
2023/09/21 01:08:13;;;;;;;48.90;16.50;;;;;;;;;;5105828;28;20036;-36
2023/09/21 01:10:42;;;;;;;49.45;16.63;;;;;;;;;;5108810;28;20039;-35
2023/09/21 01:13:11;;;;;;;44.65;16.10;;;;;;;;;;5114209;28;20106;-36
2023/09/21 01:15:40;;;;;;;50.95;16.70;;;;;;;;;;5113779;28;20036;-36
2023/09/21 01:18:08;;;;;;;51.67;15.65;;;;;;;;;;5114252;28;20069;-35
2023/09/21 01:20:35;;;;;;;43.60;15.50;;;;;;;;;;5112645;28;20034;-35
2023/09/21 01:23:08;;;;;;;42.47;16.48;;;;;;;;;;5111540;28;20377;-36
2023/09/21 01:25:45;;;;;;;37.08;14.55;;;;;;;;;;5099801;28;20070;-37
2023/09/21 01:28:16;;;;;;;45.92;14.70;;;;;;;;;;5102041;28;20036;-38
2023/09/21 01:30:44;;;;;;;47.40;14.90;;;;;;;;;;5093421;28;20051;-40
2023/09/21 01:33:15;;;;;;;45.30;14.48;;;;;;;;;;5093907;28;20040;-39
2023/09/21 01:35:46;;;;;;;39.30;14.10;;;;;;;;;;5094109;28;20489;-38
2023/09/21 01:38:13;;;;;;;43.53;12.95;;;;;;;;;;5107907;28;20032;-37
2023/09/21 01:40:41;;;;;;;37.15;12.35;;;;;;;;;;5106286;28;20024;-38
2023/09/21 01:43:10;;;;;;;40.05;12.60;;;;;;;;;;5111607;28;20035;-37
2023/09/21 01:45:40;;;;;;;35.83;12.27;;;;;;;;;;5092088;28;20040;-39
2023/09/21 01:48:11;;;;;;;27.67;11.05;;;;;;;;;;5108516;28;20032;-38
2023/09/21 01:50:43;;;;;;;42.03;12.25;;;;;;;;;;5099845;28;20027;-38
2023/09/21 01:53:09;;;;;;;;;;;;;;;;;;5102137;28;20540;-39
2023/09/21 01:55:37;;;;;;;29.83;10.98;;;;;;;;;;5101461;28;20296;-38
2023/09/21 01:58:05;;;;;;;30.80;11.15;;;;;;;;;;5102237;28;20114;-38
2023/09/21 02:00:35;;;;;;;36.88;11.13;;;;;;;;;;5103642;28;20493;-37
2023/09/21 02:03:09;;;;;;;29.63;9.73;;;;;;;;;;5102765;28;20040;-38
2023/09/21 02:05:37;;;;;;;32.58;9.35;;;;;;;;;;5101720;28;20443;-39
2023/09/21 02:08:08;;;;;;;31.88;9.85;;;;;;;;;;5101479;28;20089;-38
2023/09/21 02:10:40;;;;;;;30.17;9.35;;;;;;;;;;5101158;28;20032;-37
2023/09/21 02:13:08;;;;;;;28.20;9.07;;;;;;;;;;5101995;28;20076;-39
2023/09/21 02:15:37;;;;;;;28.80;9.43;;;;;;;;;;5100786;28;20063;-36
2023/09/21 02:18:05;;;;;;;23.60;9.85;;;;;;;;;;5093716;28;20094;-38
2023/09/21 02:20:35;;;;;;;27.75;9.20;;;;;;;;;;5102056;28;20042;-39
2023/09/21 02:23:02;;;;;;;24.35;8.93;;;;;;;;;;5101466;28;20662;-39
2023/09/21 02:25:39;;;;;;;24.40;9.02;;;;;;;;;;5110596;28;20118;-39
2023/09/21 02:28:12;;;;;;;20.50;7.72;;;;;;;;;;5112701;28;20126;-38
2023/09/21 02:30:46;;;;;;;19.20;7.80;;;;;;;;;;5112883;28;20035;-39
2023/09/21 02:33:15;;;;;;;24.98;8.25;;;;;;;;;;5112850;28;20106;-38
2023/09/21 02:35:44;;;;;;;24.60;7.68;;;;;;;;;;5108258;28;20379;-38
2023/09/21 02:38:12;;;;;;;20.83;8.00;;;;;;;;;;5102328;28;20028;-38
2023/09/21 02:40:40;;;;;;;17.80;8.00;;;;;;;;;;5100871;28;20020;-37
2023/09/21 02:43:10;;;;;;;19.65;7.28;;;;;;;;;;5103933;27;20032;-37
2023/09/21 02:45:37;;;;;;;19.83;7.40;;;;;;;;;;5111931;28;20031;-38
2023/09/21 02:48:05;;;;;;;23.50;8.45;;;;;;;;;;5112454;28;20048;-37
2023/09/21 02:50:31;;;;;;;23.30;7.80;;;;;;;;;;5112407;28;20051;-38
2023/09/21 02:53:12;;;;;;;19.13;7.25;;;;;;;;;;5112582;28;20448;-39
2023/09/21 02:55:39;;;;;;;21.77;7.45;;;;;;;;;;5112527;28;20114;-39
2023/09/21 02:58:10;;;;;;;21.23;7.70;;;;;;;;;;5112436;28;20028;-39
2023/09/21 03:00:42;;;;;;;18.33;7.13;;;;;;;;;;5112181;28;20031;-39
2023/09/21 03:03:13;;;;;;;17.73;6.38;;;;;;;;;;5111848;28;20035;-39
2023/09/21 03:05:41;;;;;;;23.00;6.45;;;;;;;;;;5112365;28;20027;-37
2023/09/21 03:08:14;;;;;;;18.33;7.05;;;;;;;;;;5112333;28;20040;-36
2023/09/21 03:10:56;;;;;;;16.67;7.10;;;;;;;;;;5109669;28;20023;-36
2023/09/21 03:13:24;;;;;;;21.67;6.40;;;;;;;;;;5102466;28;20513;-37
2023/09/21 03:15:52;;;;;;;16.92;6.63;;;;;;;;;;5100674;28;20555;-38
2023/09/21 03:18:19;;;;;;;17.50;6.88;;;;;;;;;;5093277;28;20111;-36
2023/09/21 03:20:48;;;;;;;18.52;6.32;;;;;;;;;;5091866;28;20080;-37
2023/09/21 03:23:15;;;;;;;14.95;5.57;;;;;;;;;;5091450;28;20085;-37
2023/09/21 03:25:47;;;;;;;16.23;5.78;;;;;;;;;;5091711;28;20028;-37
2023/09/21 03:28:16;;;;;;;12.40;5.30;;;;;;;;;;5091918;28;20494;-36
2023/09/21 03:30:44;;;;;;;16.33;5.72;;;;;;;;;;5090406;28;20495;-36
2023/09/21 03:33:11;;;;;;;12.80;4.90;;;;;;;;;;5091662;28;20584;-38
2023/09/21 03:35:39;;;;;;;17.13;5.55;;;;;;;;;;5091615;28;20101;-37
2023/09/21 03:38:10;;;;;;;13.02;5.57;;;;;;;;;;5091587;28;20020;-37
2023/09/21 03:40:38;;;;;;;13.73;5.00;;;;;;;;;;5094144;28;20038;-37
2023/09/21 03:43:06;;;;;;;11.55;4.82;;;;;;;;;;5101370;28;20026;-38
2023/09/21 03:45:34;;;;;;;15.05;5.82;;;;;;;;;;5100097;28;20039;-39
2023/09/21 03:48:04;;;;;;;11.57;5.22;;;;;;;;;;5102652;28;20055;-37
2023/09/21 03:50:31;;;;;;;10.52;4.65;;;;;;;;;;5111812;28;20032;-37
2023/09/21 03:53:05;;;;;;;11.02;4.57;;;;;;;;;;5111871;28;20035;-37
2023/09/21 03:55:33;;;;;;;9.68;4.55;;;;;;;;;;5111950;28;20451;-37
2023/09/21 03:58:00;;;;;;;11.20;4.38;;;;;;;;;;5115491;28;20016;-37
2023/09/21 04:02:54;;;;;;;11.95;4.40;;;;;;;;;;5116046;28;20497;-37
2023/09/21 04:05:24;;;;;;;11.80;4.68;;;;;;;;;;5115882;28;20059;-37
2023/09/21 04:07:51;;;;;;;11.65;4.47;;;;;;;;;;5115704;28;20028;-38
2023/09/21 04:10:18;;;;;;;11.23;4.43;;;;;;;;;;5115929;28;20032;-37
2023/09/21 04:12:45;;;;;;;11.20;4.40;;;;;;;;;;5115843;28;20096;-37
2023/09/21 04:15:13;;;;;;;9.52;4.50;;;;;;;;;;5115909;28;20028;-37
2023/09/21 04:17:40;;;;;;;8.27;3.63;;;;;;;;;;5115626;28;20054;-37
2023/09/21 04:20:12;;;;;;;9.80;4.20;;;;;;;;;;5115664;28;20019;-37
2023/09/21 04:22:43;;;;;;;9.38;4.07;;;;;;;;;;5115722;28;20038;-37
2023/09/21 04:25:12;;;;;;;10.75;4.50;;;;;;;;;;5115363;28;20130;-37
2023/09/21 04:27:39;;;;;;;10.02;3.72;;;;;;;;;;5115314;27;20114;-37
2023/09/21 04:30:14;;;;;;;10.63;3.65;;;;;;;;;;5115448;28;20031;-37
2023/09/21 04:32:47;;;;;;;10.30;4.63;;;;;;;;;;5115333;28;20072;-37
2023/09/21 04:35:14;;;;;;;8.70;4.00;;;;;;;;;;5115275;28;20038;-37
2023/09/21 04:37:44;;;;;;;9.82;3.90;;;;;;;;;;5115142;28;20521;-37
2023/09/21 04:40:11;;;;;;;8.20;3.50;;;;;;;;;;5115425;28;20027;-37
2023/09/21 04:42:39;;;;;;;9.27;3.45;;;;;;;;;;5115318;28;20797;-37
2023/09/21 04:45:10;;;;;;;9.05;3.75;;;;;;;;;;5115215;28;20397;-37
2023/09/21 04:47:40;;;;;;;8.10;3.63;;;;;;;;;;5115105;27;20050;-37
2023/09/21 04:50:08;;;;;;;9.52;3.63;;;;;;;;;;5115141;28;20024;-37
2023/09/21 04:52:35;;;;;;;9.45;3.38;;;;;;;;;;5115066;28;20489;-37
2023/09/21 04:55:08;;;;;;;8.77;3.42;;;;;;;;;;5115132;28;20516;-37
2023/09/21 04:57:35;;;;;;;6.82;3.28;;;;;;;;;;5114798;28;20393;-37
2023/09/21 05:00:11;;;;;;;8.32;3.13;;;;;;;;;;5114868;28;20031;-37
2023/09/21 05:02:38;;;;;;;5.00;2.92;;;;;;;;;;5114888;28;20039;-37
2023/09/21 05:05:06;;;;;;;6.88;2.90;;;;;;;;;;5114870;28;20027;-37
2023/09/21 05:07:35;;;;;;;6.07;2.90;;;;;;;;;;5114497;27;20020;-37
2023/09/21 05:10:03;;;;;;;6.10;2.95;;;;;;;;;;5114128;28;20466;-37
2023/09/21 05:12:30;;;;;;;7.00;2.90;;;;;;;;;;5114627;28;20028;-37
2023/09/21 05:14:57;;;;;;;8.77;2.83;;;;;;;;;;5114719;28;20031;-37
2023/09/21 05:17:25;;;;;;;5.72;2.90;;;;;;;;;;5114574;28;20081;-37
2023/09/21 05:19:52;;;;;;;7.22;3.10;;;;;;;;;;5114583;28;20111;-37
2023/09/21 05:22:19;;;;;;;5.43;2.60;;;;;;;;;;5114520;28;20088;-37
2023/09/21 05:24:46;;;;;;;7.03;2.97;;;;;;;;;;5114254;28;20044;-37
2023/09/21 05:27:13;;;;;;;7.22;2.80;;;;;;;;;;5114448;28;20019;-37
2023/09/21 05:29:40;;;;;;;8.20;3.05;;;;;;;;;;5114420;28;20051;-37
2023/09/21 05:32:07;;;;;;;6.65;2.88;;;;;;;;;;5114167;28;20027;-39
2023/09/21 05:34:34;;;;;;;8.00;2.95;;;;;;;;;;5114288;28;20030;-37
2023/09/21 05:37:01;;;;;;;6.35;2.53;;;;;;;;;;5114246;28;20548;-37
2023/09/21 05:39:28;;;;;;;7.22;2.95;;;;;;;;;;5114165;28;20023;-37
2023/09/21 05:41:55;;;;;;;6.22;2.72;;;;;;;;;;5114172;27;20080;-37
2023/09/21 05:44:24;;;;;;;5.65;2.58;;;;;;;;;;5114045;28;20046;-37
2023/09/21 05:46:52;;;;;;;5.47;2.63;;;;;;;;;;5114028;28;20100;-37
2023/09/21 05:49:27;;;;;;;5.88;2.70;;;;;;;;;;5114039;28;20019;-37
2023/09/21 05:51:56;;;;;;;5.38;2.58;;;;;;;;;;5114208;28;20477;-37
2023/09/21 05:54:24;;;;;;;4.53;2.10;;;;;;;;;;5114043;28;20687;-37
2023/09/21 05:56:52;;;;;;;6.00;2.30;;;;;;;;;;5113952;28;20031;-37
2023/09/21 05:59:19;;;;;;;6.43;2.70;;;;;;;;;;5113709;28;20031;-37
2023/09/21 06:01:48;;;;;;;4.65;2.00;;;;;;;;;;5103067;28;20117;-39
2023/09/21 06:04:21;;;;;;;5.80;2.33;;;;;;;;;;5093111;28;20493;-39
2023/09/21 06:06:48;;;;;;;5.38;2.47;;;;;;;;;;5093266;28;20040;-39
2023/09/21 06:09:18;;;;;;;4.90;2.10;;;;;;;;;;5093200;28;20028;-40
2023/09/21 06:11:48;;;;;;;3.40;1.65;;;;;;;;;;5093043;28;20114;-39
2023/09/21 06:14:16;;;;;;;4.80;2.13;;;;;;;;;;5093008;28;20043;-39
2023/09/21 06:16:44;;;;;;;6.32;2.45;;;;;;;;;;5093000;28;20032;-39
2023/09/21 06:19:12;;;;;;;4.80;2.17;;;;;;;;;;5092764;28;20375;-39
2023/09/21 06:21:39;;;;;;;5.35;2.13;;;;;;;;;;5092708;28;20034;-37
2023/09/21 06:24:10;;;;;;;4.72;2.25;;;;;;;;;;5092665;28;20028;-37
2023/09/21 06:26:38;;;;;;;4.32;2.17;;;;;;;;;;5092901;28;20044;-37
2023/09/21 06:29:05;;;;;;;3.22;1.83;;;;;;;;;;5092551;28;20036;-37
2023/09/21 06:31:32;;;;;;;3.10;1.67;;;;;;;;;;5092783;28;20115;-37
2023/09/21 06:34:01;;;;;;;4.05;2.03;;;;;;;;;;5092588;28;20032;-39
2023/09/21 06:36:29;;;;;;;4.40;2.00;;;;;;;;;;5092484;28;20470;-39
2023/09/21 06:39:00;;;;;;;4.80;1.63;;;;;;;;;;5092392;28;20063;-39
2023/09/21 06:41:31;;;;;;;4.65;2.17;;;;;;;;;;5092332;28;20039;-37
2023/09/21 06:43:58;;;;;;;3.53;2.03;;;;;;;;;;5092422;28;20046;-39
2023/09/21 06:46:25;;;;;;;4.47;2.22;;;;;;;;;;5092333;28;20500;-37
2023/09/21 06:48:53;;;;;;;4.53;2.22;;;;;;;;;;5092336;28;20020;-37
2023/09/21 06:51:20;;;;;;;3.67;1.98;;;;;;;;;;5092460;28;20113;-37
2023/09/21 06:53:48;;;;;;;4.72;2.00;;;;;;;;;;5092394;28;20051;-37
2023/09/21 06:56:16;;;;;;;4.53;1.73;;;;;;;;;;5092216;28;20068;-37
2023/09/21 06:58:43;;;;;;;4.68;1.60;;;;;;;;;;5092103;28;20402;-37
2023/09/21 07:01:11;;;;;;;3.78;1.70;;;;;;;;;;5092309;28;20035;-37
2023/09/21 07:03:38;;;;;;;3.13;1.73;;;;;;;;;;5092249;28;20077;-37
2023/09/21 07:06:05;;;;;;;5.07;1.85;;;;;;;;;;5091955;28;20123;-37
2023/09/21 07:08:32;;;;;;;3.45;1.83;;;;;;;;;;5092265;28;20055;-37
2023/09/21 07:10:59;;;;;;;3.47;1.83;;;;;;;;;;5092160;28;20474;-37
2023/09/21 07:13:26;;;;;;;3.00;1.45;;;;;;;;;;5091977;28;20040;-37
2023/09/21 07:15:58;;;;;;;3.53;1.63;;;;;;;;;;5092086;28;20024;-37
2023/09/21 07:18:26;;;;;;;3.20;1.67;;;;;;;;;;5091870;28;20524;-37
2023/09/21 07:20:54;;;;;;;4.95;2.03;;;;;;;;;;5091791;28;20036;-37
2023/09/21 07:23:21;;;;;;;3.47;1.85;;;;;;;;;;5091754;28;20043;-37
2023/09/21 07:25:49;;;;;;;3.42;1.70;;;;;;;;;;5091754;28;20024;-37
2023/09/21 07:28:16;;;;;;;3.28;1.70;;;;;;;;;;5091630;28;20028;-37
2023/09/21 07:30:43;;;;;;;3.22;1.75;;;;;;;;;;5091664;28;20038;-37
2023/09/21 07:33:10;;;;;;;3.42;1.60;;;;;;;;;;5091690;28;20028;-37
2023/09/21 07:35:37;;;;;;;2.92;1.73;;;;;;;;;;5091801;28;20028;-37
2023/09/21 07:38:04;;;;;;;2.78;1.40;;;;;;;;;;5091701;28;20024;-37
2023/09/21 07:40:31;;;;;;;3.58;1.60;;;;;;;;;;5091822;28;20474;-37
2023/09/21 07:42:58;;;;;;;3.25;1.50;;;;;;;;;;5091677;28;20032;-37
2023/09/21 07:45:25;;;;;;;3.53;1.55;;;;;;;;;;5091650;28;20085;-37
2023/09/21 07:47:54;;;;;;;3.35;1.48;;;;;;;;;;5091586;28;20024;-37
2023/09/21 07:50:23;;;;;;;3.28;1.58;;;;;;;;;;5091511;28;20028;-37
2023/09/21 07:52:53;;;;;;;2.40;1.40;;;;;;;;;;5091487;28;20028;-37
2023/09/21 07:55:20;;;;;;;4.47;1.45;;;;;;;;;;5091522;28;20030;-37
2023/09/21 07:57:47;;;;;;;3.10;1.38;;;;;;;;;;5091502;28;20547;-37
2023/09/21 08:00:14;;;;;;;3.83;1.90;;;;;;;;;;5091496;28;20028;-37
2023/09/21 08:02:41;;;;;;;2.47;1.50;;;;;;;;;;5091383;28;20046;-37
2023/09/21 08:05:12;;;;;;;1.90;1.25;;;;;;;;;;5091260;28;20058;-37
2023/09/21 08:07:40;;;;;;;3.55;1.45;;;;;;;;;;5091447;28;20028;-37
2023/09/21 08:10:07;;;;;;;2.35;1.20;;;;;;;;;;5091383;28;20031;-37
2023/09/21 08:12:36;;;;;;;4.85;1.70;;;;;;;;;;5091418;28;20377;-37
2023/09/21 08:15:06;;;;;;;3.38;1.52;;;;;;;;;;5091336;28;20112;-37
2023/09/21 08:17:34;;;;;;;2.88;1.45;;;;;;;;;;5091548;28;20524;-37
2023/09/21 08:20:03;;;;;;;3.63;1.52;;;;;;;;;;5091449;28;20424;-37
2023/09/21 08:22:30;;;;;;;2.45;1.40;;;;;;;;;;5091299;28;20024;-37
2023/09/21 08:24:57;;;;;;;3.13;1.58;;;;;;;;;;5091126;28;20047;-37
2023/09/21 08:27:28;;;;;;;4.78;1.50;;;;;;;;;;5091316;28;20044;-37
2023/09/21 08:29:57;;;;;;;2.67;1.40;;;;;;;;;;5091208;28;20077;-37
2023/09/21 08:32:26;;;;;;;3.05;1.33;;;;;;;;;;5091237;28;20040;-37
2023/09/21 08:34:53;;;;;;;2.58;1.50;;;;;;;;;;5091177;28;20070;-37
2023/09/21 08:37:20;;;;;;;3.13;1.50;;;;;;;;;;5091155;28;20577;-37
2023/09/21 08:39:47;;;;;;;2.78;1.50;;;;;;;;;;5091109;28;20025;-37
2023/09/21 08:42:14;;;;;;;2.25;1.17;;;;;;;;;;5091196;28;20032;-37
2023/09/21 08:44:43;;;;;;;2.45;1.25;;;;;;;;;;5093684;28;20031;-37
2023/09/21 08:47:14;;;;;;;2.70;1.35;;;;;;;;;;5094600;28;20500;-37
2023/09/21 08:49:43;;;;;;;2.35;1.23;;;;;;;;;;5094683;28;20079;-37
2023/09/21 08:52:11;;;;;;;1.80;1.23;;;;;;;;;;5094564;28;20470;-37
2023/09/21 08:54:42;;;;;;;2.60;1.42;;;;;;;;;;5094686;28;20077;-37
2023/09/21 08:57:12;;;;;;;2.30;1.27;;;;;;;;;;5094517;28;20032;-37
2023/09/21 08:59:43;;;;;;;2.22;1.30;;;;;;;;;;5094418;28;20034;-37
2023/09/21 09:02:12;;;;;;;2.30;1.20;;;;;;;;;;5094573;28;20028;-37
2023/09/21 09:04:43;;;;;;;2.75;1.40;;;;;;;;;;5094482;28;20430;-37
2023/09/21 09:07:12;;;;;;;2.35;1.40;;;;;;;;;;5094278;28;20563;-37
2023/09/21 09:09:39;;;;;;;2.00;1.30;;;;;;;;;;5094447;28;20424;-37
2023/09/21 09:12:26;;;;;;;2.55;1.42;;;;;;;;;;5094298;28;20482;-37
2023/09/21 09:14:57;;;;;;;2.67;1.35;;;;;;;;;;5094338;28;20027;-37
2023/09/21 09:17:30;;;;;;;2.45;1.13;;;;;;;;;;5094079;28;20037;-37
2023/09/21 09:20:02;;;;;;;1.88;1.00;;;;;;;;;;5094030;28;20031;-37
2023/09/21 09:22:34;;;;;;;1.98;1.10;;;;;;;;;;5094122;28;20135;-37
2023/09/21 09:25:09;;;;;;;1.30;1.08;;;;;;;;;;5093850;28;20409;-37
2023/09/21 09:27:36;;;;;;;2.83;1.50;;;;;;;;;;5093876;28;20089;-37
2023/09/21 09:30:08;;;;;;;2.83;1.35;;;;;;;;;;5094034;28;20028;-37
2023/09/21 09:32:40;;;;;;;2.22;1.50;;;;;;;;;;5093844;28;20446;-37
2023/09/21 09:35:14;;;;;;;2.15;1.20;;;;;;;;;;5093792;28;20074;-37
2023/09/21 09:37:42;;;;;;;1.77;1.20;;;;;;;;;;5093792;28;20107;-37
2023/09/21 09:40:10;;;;;;;2.10;1.30;;;;;;;;;;5093608;28;20074;-37
2023/09/21 09:42:44;;;;;;;2.97;1.27;;;;;;;;;;5093475;28;20047;-37
2023/09/21 09:45:18;;;;;;;2.30;1.05;;;;;;;;;;5093860;28;20039;-37
2023/09/21 09:48:15;;;;;;;2.58;1.13;;;;;;;;;;5093378;28;20036;-37
2023/09/21 09:50:42;;;;;;;4.10;1.20;;;;;;;;;;5084913;28;20059;-37
2023/09/21 09:53:17;;;;;;;3.50;1.70;;;;;;;;;;5093367;28;20024;-37
2023/09/21 09:55:45;;;;;;;2.65;1.10;;;;;;;;;;5096371;28;20024;-39
2023/09/21 09:58:13;;;;;;;2.88;1.25;;;;;;;;;;5102520;28;20016;-40
2023/09/21 10:00:41;;;;;;;1.17;0.80;;;;;;;;;;5103889;28;20350;-39
2023/09/21 10:03:11;;;;;;;1.55;0.90;;;;;;;;;;5102653;28;20523;-40
2023/09/21 10:05:39;;;;;;;3.03;1.17;;;;;;;;;;5101759;28;20031;-38
2023/09/21 10:08:10;;;;;;;2.55;1.48;;;;;;;;;;5099817;28;20783;-39
2023/09/21 10:10:57;;;;;;;2.45;1.40;;;;;;;;;;5102135;28;20034;-38
2023/09/21 10:13:27;;;;;;;1.48;1.10;;;;;;;;;;5102329;28;20497;-39
2023/09/21 10:16:05;;;;;;;2.30;1.10;;;;;;;;;;5098867;28;20393;-39
2023/09/21 10:18:37;;;;;;;3.63;1.75;;;;;;;;;;5097203;28;20027;-39
2023/09/21 10:21:13;;;;;;;2.58;1.40;;;;;;;;;;5092833;28;20032;-39
2023/09/21 10:24:02;;;;;;;1.75;1.02;;;;;;;;;;5100689;28;20047;-39
2023/09/21 10:26:33;;;;;;;3.25;1.30;;;;;;;;;;5106591;28;20412;-39
2023/09/21 10:29:04;;;;;;;1.52;1.20;;;;;;;;;;5104989;28;20028;-38
2023/09/21 10:31:34;;;;;;;3.25;1.88;;;;;;;;;;5101247;28;20023;-39
2023/09/21 10:34:01;;;;;;;3.45;2.53;;;;;;;;;;5102278;28;20027;-39
2023/09/21 10:36:29;;;;;;;5.50;2.70;;;;;;;;;;5103030;28;20031;-38
2023/09/21 10:39:10;;;;;;;5.60;3.10;;;;;;;;;;5095030;28;20052;-37
2023/09/21 10:41:45;;;;;;;7.07;2.50;;;;;;;;;;5092423;28;20038;-39
2023/09/21 10:44:13;;;;;;;5.20;3.60;;;;;;;;;;5092428;28;20082;-40
2023/09/21 10:46:43;;;;;;;4.75;2.85;;;;;;;;;;5092290;28;20082;-40
2023/09/21 10:49:13;;;;;;;7.05;4.28;;;;;;;;;;5092374;28;20393;-39
2023/09/21 10:51:40;;;;;;;6.72;4.03;;;;;;;;;;5092337;28;20077;-39
2023/09/21 10:54:08;;;;;;;5.20;3.70;;;;;;;;;;5100070;28;20058;-40
2023/09/21 10:56:35;;;;;;;6.55;3.28;;;;;;;;;;5112523;28;20034;-40
2023/09/21 10:59:06;;;;;;;10.75;3.10;;;;;;;;;;5112537;28;20512;-38
2023/09/21 11:01:33;;;;;;;7.07;3.45;;;;;;;;;;5111089;28;20023;-38
2023/09/21 11:04:00;;;;;;;8.48;3.13;;;;;;;;;;5102165;28;20114;-38
2023/09/21 11:06:29;;;;;;;8.43;3.25;;;;;;;;;;5111167;28;20027;-39
2023/09/21 11:08:56;;;;;;;7.38;3.05;;;;;;;;;;5110119;28;20103;-39
2023/09/21 11:11:25;;;;;;;10.63;3.65;;;;;;;;;;5102759;28;20028;-40
2023/09/21 11:13:52;;;;;;;8.30;3.65;;;;;;;;;;5100972;28;20028;-39
2023/09/21 11:16:22;;;;;;;6.03;3.83;;;;;;;;;;5101334;28;20055;-39
2023/09/21 11:18:51;;;;;;;5.07;3.50;;;;;;;;;;5106340;28;20043;-41
2023/09/21 11:21:19;;;;;;;8.60;3.60;;;;;;;;;;5112032;28;20441;-41
2023/09/21 11:23:46;;;;;;;6.28;3.50;;;;;;;;;;5111885;28;20131;-41
2023/09/21 11:26:14;;;;;;;5.78;3.20;;;;;;;;;;5112273;28;20035;-41
2023/09/21 11:28:45;;;;;;;5.82;3.40;;;;;;;;;;5111887;28;20044;-39
2023/09/21 11:31:17;;;;;;;6.68;3.47;;;;;;;;;;5101000;28;20028;-39
2023/09/21 11:33:45;;;;;;;7.05;3.20;;;;;;;;;;5097944;28;20416;-39
2023/09/21 11:36:12;;;;;;;7.25;3.15;;;;;;;;;;5094116;28;20082;-40
2023/09/21 11:38:41;;;;;;;7.40;3.05;;;;;;;;;;5096972;28;20027;-38
2023/09/21 11:41:09;;;;;;;11.38;2.85;;;;;;;;;;5105788;28;20030;-39
2023/09/21 11:43:36;;;;;;;10.75;3.55;;;;;;;;;;5111886;28;20103;-39
2023/09/21 11:46:03;;;;;;;8.27;3.00;;;;;;;;;;5111868;28;20032;-39
2023/09/21 11:48:33;;;;;;;9.25;3.67;;;;;;;;;;5111661;28;20024;-41
2023/09/21 11:51:04;;;;;;;6.43;3.10;;;;;;;;;;5105625;28;20058;-41
2023/09/21 11:53:31;;;;;;;15.00;3.53;;;;;;;;;;5111630;28;20059;-39
2023/09/21 11:55:58;;;;;;;13.30;2.90;;;;;;;;;;5107647;28;20107;-39
2023/09/21 11:58:33;;;;;;;7.32;2.90;;;;;;;;;;5111658;28;20024;-39
2023/09/21 12:03:33;;;;;;;9.30;3.20;;;;;;;;;;5112186;28;20071;-39
2023/09/21 12:06:02;;;;;;;8.35;2.38;;;;;;;;;;5111821;28;20031;-39
2023/09/21 12:08:29;;;;;;;8.43;2.95;;;;;;;;;;5107997;28;20036;-41
2023/09/21 12:10:57;;;;;;;7.18;2.67;;;;;;;;;;5101292;28;20024;-42
2023/09/21 12:13:24;;;;;;;9.45;2.78;;;;;;;;;;5105853;28;20070;-40
2023/09/21 12:15:55;;;;;;;10.18;2.83;;;;;;;;;;5111611;28;20031;-40
2023/09/21 12:18:22;;;;;;;5.18;2.58;;;;;;;;;;5101660;28;20043;-40
2023/09/21 12:20:51;;;;;;;7.80;2.55;;;;;;;;;;5102534;28;20054;-40
2023/09/21 12:23:18;;;;;;;6.57;2.70;;;;;;;;;;5115342;28;20065;-40
2023/09/21 12:25:46;;;;;;;7.38;2.45;;;;;;;;;;5115509;28;20039;-40
2023/09/21 12:28:14;;;;;;;8.73;2.72;;;;;;;;;;5115474;28;20445;-40
2023/09/21 12:30:42;;;;;;;5.47;2.25;;;;;;;;;;5115478;28;20392;-40
2023/09/21 12:33:11;;;;;;;6.97;2.38;;;;;;;;;;5115390;27;20027;-40
2023/09/21 12:35:38;;;;;;;11.98;2.92;;;;;;;;;;5115013;28;20586;-40
2023/09/21 12:38:05;;;;;;;7.82;2.95;;;;;;;;;;5115348;28;20027;-40
2023/09/21 12:40:32;;;;;;;5.05;2.42;;;;;;;;;;5115307;28;20489;-40
2023/09/21 12:43:00;;;;;;;4.82;2.47;;;;;;;;;;5115252;28;20084;-40
2023/09/21 12:45:27;;;;;;;7.80;2.80;;;;;;;;;;5115047;28;20118;-40
2023/09/21 12:47:54;;;;;;;4.68;2.60;;;;;;;;;;5115118;28;20028;-41
2023/09/21 12:50:23;;;;;;;6.03;2.30;;;;;;;;;;5115213;28;20031;-40
2023/09/21 12:52:50;;;;;;;4.75;2.33;;;;;;;;;;5115051;28;20032;-41
2023/09/21 12:55:19;;;;;;;5.43;2.72;;;;;;;;;;5114885;28;20073;-40
2023/09/21 12:57:47;;;;;;;5.20;2.47;;;;;;;;;;5114746;28;20031;-41
2023/09/21 13:00:17;;;;;;;6.43;2.88;;;;;;;;;;5114961;28;20092;-40
2023/09/21 13:02:44;;;;;;;3.85;2.25;;;;;;;;;;5114826;28;20027;-40
2023/09/21 13:05:12;;;;;;;4.75;2.75;;;;;;;;;;5114768;28;20028;-41
2023/09/21 13:07:43;;;;;;;4.25;2.10;;;;;;;;;;5114718;28;20374;-41
2023/09/21 13:10:11;;;;;;;7.15;2.40;;;;;;;;;;5114779;28;20059;-40
2023/09/21 13:12:39;;;;;;;6.03;2.38;;;;;;;;;;5114837;28;20497;-40
2023/09/21 13:15:07;;;;;;;7.60;2.60;;;;;;;;;;5114700;28;20051;-41
2023/09/21 13:17:34;;;;;;;8.00;2.30;;;;;;;;;;5114246;28;20088;-40
2023/09/21 13:20:03;;;;;;;5.00;2.50;;;;;;;;;;5114144;28;20031;-40
2023/09/21 13:22:31;;;;;;;4.57;2.63;;;;;;;;;;5114317;28;20481;-41
2023/09/21 13:24:58;;;;;;;3.78;2.75;;;;;;;;;;5114054;28;20055;-39
2023/09/21 13:27:25;;;;;;;5.80;2.75;;;;;;;;;;5114484;28;20508;-39
2023/09/21 13:29:52;;;;;;;5.90;2.88;;;;;;;;;;5113662;28;20055;-39
2023/09/21 13:32:20;;;;;;;3.72;2.30;;;;;;;;;;5114410;28;20032;-39
2023/09/21 13:34:48;;;;;;;4.47;2.80;;;;;;;;;;5114171;27;20114;-39
2023/09/21 13:37:15;;;;;;;4.35;2.47;;;;;;;;;;5114129;28;20518;-39
2023/09/21 13:39:42;;;;;;;5.78;3.03;;;;;;;;;;5114317;28;20028;-39
2023/09/21 13:42:09;;;;;;;6.78;3.15;;;;;;;;;;5114039;28;20023;-39
2023/09/21 13:44:37;;;;;;;3.97;2.95;;;;;;;;;;5113899;28;20599;-39
2023/09/21 13:47:04;;;;;;;6.00;3.00;;;;;;;;;;5114054;28;20027;-39
2023/09/21 13:49:33;;;;;;;4.93;2.78;;;;;;;;;;5113992;27;20160;-39
2023/09/21 13:52:00;;;;;;;6.03;2.83;;;;;;;;;;5113864;28;20084;-38
2023/09/21 13:54:29;;;;;;;7.25;3.00;;;;;;;;;;5113854;28;20039;-38
2023/09/21 13:56:56;;;;;;;4.60;2.60;;;;;;;;;;5113638;28;20024;-39
2023/09/21 13:59:23;;;;;;;5.47;2.70;;;;;;;;;;5113838;28;20031;-38
2023/09/21 14:01:50;;;;;;;5.20;2.85;;;;;;;;;;5112927;28;20080;-39
2023/09/21 14:04:18;;;;;;;4.15;2.30;;;;;;;;;;5113557;28;20020;-40
2023/09/21 14:06:46;;;;;;;7.00;3.35;;;;;;;;;;5113461;28;20035;-40
2023/09/21 14:09:14;;;;;;;5.57;3.20;;;;;;;;;;5113447;28;20182;-40
2023/09/21 14:11:41;;;;;;;4.60;2.70;;;;;;;;;;5113368;28;20122;-40
2023/09/21 14:14:08;;;;;;;6.72;2.90;;;;;;;;;;5113476;28;20088;-40
2023/09/21 14:16:35;;;;;;;5.82;2.67;;;;;;;;;;5109975;28;20070;-39
2023/09/21 14:19:02;;;;;;;5.20;2.60;;;;;;;;;;5113399;28;20024;-39
2023/09/21 14:21:31;;;;;;;11.00;2.85;;;;;;;;;;5113012;28;20067;-39
2023/09/21 14:23:58;;;;;;;5.45;2.75;;;;;;;;;;5112905;28;20052;-39
2023/09/21 14:26:25;;;;;;;4.32;2.88;;;;;;;;;;5113067;28;20023;-39
2023/09/21 14:28:52;;;;;;;5.13;2.55;;;;;;;;;;5113065;28;20024;-39
2023/09/21 14:31:19;;;;;;;5.68;2.67;;;;;;;;;;5113158;28;20042;-38
2023/09/21 14:33:46;;;;;;;5.25;2.17;;;;;;;;;;5105279;28;20049;-39
2023/09/21 14:36:13;;;;;;;3.22;2.40;;;;;;;;;;5102824;28;20490;-40
2023/09/21 14:38:40;;;;;;;5.03;2.30;;;;;;;;;;5101176;28;20020;-39
2023/09/21 14:41:07;;;;;;;4.32;2.33;;;;;;;;;;5101578;28;20026;-39
2023/09/21 14:43:34;;;;;;;3.05;2.05;;;;;;;;;;5103038;28;20127;-39
2023/09/21 14:46:01;;;;;;;3.03;2.20;;;;;;;;;;5101289;28;20031;-38
2023/09/21 14:48:29;;;;;;;5.13;2.53;;;;;;;;;;5102082;28;20036;-40
2023/09/21 14:50:56;;;;;;;7.25;2.50;;;;;;;;;;5103031;28;20092;-40
2023/09/21 14:53:25;;;;;;;7.13;2.72;;;;;;;;;;5101213;28;20481;-39